Historyczne dane pomiarowe

Dodano dane terminowe – wersja testowa.

Dane z okresu 1951-2019

Wersja bazy: 1.34 [2019-03-16, lista zmian], aktualizacja planowana na 2019-04-15

Dane meteo z obszaru Polski uzyskane na podstawie danych udostępnionych przez Instytut Meteorologii i Gospodarki Wodnej – Państwowy Instytut Badawczy.

 

Wybierz Datę:    

       

TemperaturaWilgotnośćWiatrCiśnienieOpadyŚniegCzas trwania zjawisk
 Stacja t tx tn tng RH VA  wxwx mslp ppp RRR   cm mm wxwxwxwxwxwxwx
2010-02-25 4.3 10.0 0.5 -1.9 90.8- 4.7 1.7---- 0.0-- 8---------
2010-02-26 3.9 8.1 0.9 -1.9 90.5- 6.0 1.3---- 0.7-- 3---------
2010-02-27 4.2 8.0 2.2 -1.6 80.8- 4.7 2.3---- 0.0------------
2010-02-28 3.8 9.2 -0.5 -3.0 82.0- 5.0 4.0---- 2.2------------
2010-03-01 4.2 5.6 2.7 -1.3 92.0- 8.0 11.0---- 5.4------------
2010-03-02 2.0 4.6 0.7 -2.0 90.8- 7.3 5.0---- 1.5------------
2010-03-03 0.8 3.8 -2.2 -5.2 86.3- 5.0 4.0---- 0.2------------
2010-03-04 -2.9 3.6 -6.6 -9.8 79.8- 4.7 3.7---- 2.7------------
2010-03-05 -5.0 -1.6 -9.0-14.0 86.0- 6.3 3.3---- 0.1-- 3---------
2010-03-06 -7.9 -0.8-14.8-15.0 81.8- 3.3 1.3---- 0.0-- 3---------
2010-03-07 -6.9 -0.3-13.9-15.5 79.3- 5.0 1.3---- 0.0-- 2---------
2010-03-08 -5.5 0.8 -9.9-10.3 80.0- 4.0 1.7---- 0.0-- 2---------
2010-03-09 -5.9 2.2-12.9-15.0 72.5- 3.0 1.7---- 0.0------------
2010-03-10 -3.6 6.2-10.1-10.6 73.5- 2.7 1.7---- 0.0------------
2010-03-11 -2.4 6.1 -8.0 -9.0 76.3- 2.0 2.7---- 0.0------------
2010-03-12 0.3 3.1 -3.0 -4.1 91.0- 7.3 1.3---- 1.2------------
2010-03-13 1.9 3.2 1.0 0.5 96.5- 8.0 3.0---- 3.4------------
2010-03-14 1.6 3.5 0.1 -1.4 95.8- 8.0 6.3---- 4.6------------
2010-03-15 -0.3 2.2 -2.7 -8.1 89.3- 7.0 1.7---- 1.0------------
2010-03-16 0.1 4.8 -3.0 -4.5 79.0- 3.0 1.7---- 0.0------------
2010-03-17 3.1 9.0 -2.5 -3.1 84.8- 6.0 2.0---- 0.0------------
2010-03-18 7.6 13.6 3.0 1.5 80.0- 3.0 1.3---- 0.0------------
2010-03-19 8.8 16.7 -0.3 -2.4 71.5- 3.7 1.7---- 0.0------------
2010-03-20 10.5 14.2 6.0 4.0 88.8- 7.7 2.7---- 5.0------------
2010-03-21 8.9 14.5 5.2 4.5 94.8- 7.3 2.0---- 3.7------------
2010-03-22 6.1 11.1 3.2 2.0 86.0- 5.7 2.0---- 0.0------------
2010-03-23 5.7 14.4 -1.9 -3.0 80.0- 5.0 2.0---- 0.0------------
2010-03-24 5.2 14.4 -2.2 -4.0 77.0- 4.0 1.7---- 0.0------------
2010-03-25 10.7 20.0 3.1 0.1 78.5- 3.3 2.0---- 0.0------------
2010-03-26 10.9 23.2 2.0 0.3 69.3- 2.7 2.7---- 0.4------------
166.3 ms

 

Źródłem pochodzenia danych jest Instytut Meteorologii i Gospodarki Wodnej – Państwowy Instytut Badawczy. Dane Instytutu Meteorologii i Gospodarki Wodnej – Państwowego Instytutu Badawczego zostały przetworzone.

Dane źródłowe można odnaleźć na stronie https://dane.imgw.pl